sensor_id;sensor_type;location;lat;lon;timestamp;pressure;altitude;pressure_sealevel;temperature;humidity
63700;BME280;49845;47.130;142.766;2023-06-19T00:00:22;100026.53;;;12.91;87.87
63700;BME280;49845;47.130;142.766;2023-06-19T00:02:53;100021.38;;;12.88;87.55
63700;BME280;49845;47.130;142.766;2023-06-19T00:05:24;100002.38;;;12.80;85.69
63700;BME280;49845;47.130;142.766;2023-06-19T00:07:54;100019.47;;;12.93;83.58
63700;BME280;49845;47.130;142.766;2023-06-19T00:10:26;99992.06;;;13.04;86.70
63700;BME280;49845;47.130;142.766;2023-06-19T00:12:57;100017.28;;;13.64;85.36
63700;BME280;49845;47.130;142.766;2023-06-19T00:15:28;100016.59;;;13.59;80.45
63700;BME280;49845;47.130;142.766;2023-06-19T00:17:58;100019.25;;;13.84;82.10
63700;BME280;49845;47.130;142.766;2023-06-19T00:20:29;100015.28;;;14.22;80.87
63700;BME280;49845;47.130;142.766;2023-06-19T00:22:59;100017.06;;;14.22;79.41
63700;BME280;49845;47.130;142.766;2023-06-19T00:25:32;100014.25;;;14.03;78.12
63700;BME280;49845;47.130;142.766;2023-06-19T00:28:03;100021.91;;;13.82;76.48
63700;BME280;49845;47.130;142.766;2023-06-19T00:30:42;100018.22;;;13.63;79.32
63700;BME280;49845;47.130;142.766;2023-06-19T00:33:13;100021.44;;;13.71;79.63
63700;BME280;49845;47.130;142.766;2023-06-19T00:35:43;100022.91;;;13.53;77.89
63700;BME280;49845;47.130;142.766;2023-06-19T00:38:14;100022.69;;;13.33;78.63
63700;BME280;49845;47.130;142.766;2023-06-19T00:40:46;100030.50;;;13.34;80.91
63700;BME280;49845;47.130;142.766;2023-06-19T00:43:17;100026.97;;;13.35;80.61
63700;BME280;49845;47.130;142.766;2023-06-19T00:45:48;100032.56;;;13.23;78.13
63700;BME280;49845;47.130;142.766;2023-06-19T00:48:18;100017.22;;;13.11;79.47
63700;BME280;49845;47.130;142.766;2023-06-19T00:50:49;100033.94;;;13.36;79.54
63700;BME280;49845;47.130;142.766;2023-06-19T00:53:20;100035.25;;;13.50;77.48
63700;BME280;49845;47.130;142.766;2023-06-19T00:55:54;100023.75;;;13.54;78.31
63700;BME280;49845;47.130;142.766;2023-06-19T00:58:27;100015.59;;;13.63;77.57
63700;BME280;49845;47.130;142.766;2023-06-19T01:00:58;100017.47;;;13.85;77.41
63700;BME280;49845;47.130;142.766;2023-06-19T01:03:36;100026.22;;;14.10;77.31
63700;BME280;49845;47.130;142.766;2023-06-19T01:06:14;100025.59;;;14.03;77.22
63700;BME280;49845;47.130;142.766;2023-06-19T01:08:52;100039.75;;;13.99;76.21
63700;BME280;49845;47.130;142.766;2023-06-19T01:11:31;100009.25;;;13.69;74.65
63700;BME280;49845;47.130;142.766;2023-06-19T01:14:06;100035.75;;;13.88;74.17
63700;BME280;49845;47.130;142.766;2023-06-19T01:16:39;100017.75;;;14.02;72.08
63700;BME280;49845;47.130;142.766;2023-06-19T01:19:10;100018.72;;;14.24;73.32
63700;BME280;49845;47.130;142.766;2023-06-19T01:21:45;100030.00;;;14.77;70.95
63700;BME280;49845;47.130;142.766;2023-06-19T01:24:18;100030.81;;;14.79;68.47
63700;BME280;49845;47.130;142.766;2023-06-19T01:26:49;100020.09;;;15.07;71.14
63700;BME280;49845;47.130;142.766;2023-06-19T01:29:20;100032.13;;;15.36;70.12
63700;BME280;49845;47.130;142.766;2023-06-19T01:31:55;100015.56;;;15.54;68.81
63700;BME280;49845;47.130;142.766;2023-06-19T01:34:30;100031.19;;;15.81;66.80
63700;BME280;49845;47.130;142.766;2023-06-19T01:37:01;99985.59;;;15.37;65.59
63700;BME280;49845;47.130;142.766;2023-06-19T01:39:36;100037.94;;;15.44;67.74
63700;BME280;49845;47.130;142.766;2023-06-19T01:42:07;100009.59;;;15.29;66.59
63700;BME280;49845;47.130;142.766;2023-06-19T01:44:39;100034.22;;;15.28;64.80
63700;BME280;49845;47.130;142.766;2023-06-19T01:47:11;100027.72;;;15.37;65.97
63700;BME280;49845;47.130;142.766;2023-06-19T01:49:44;100030.28;;;15.38;64.05
63700;BME280;49845;47.130;142.766;2023-06-19T01:52:15;100031.28;;;15.58;63.93
63700;BME280;49845;47.130;142.766;2023-06-19T01:54:47;100034.94;;;15.53;62.71
63700;BME280;49845;47.130;142.766;2023-06-19T01:57:18;100036.28;;;15.42;63.38
63700;BME280;49845;47.130;142.766;2023-06-19T01:59:49;100027.22;;;15.27;61.46
63700;BME280;49845;47.130;142.766;2023-06-19T02:02:20;100019.25;;;15.06;62.94
63700;BME280;49845;47.130;142.766;2023-06-19T02:04:50;100032.81;;;14.96;61.66
63700;BME280;49845;47.130;142.766;2023-06-19T02:07:21;100040.84;;;15.15;62.83
63700;BME280;49845;47.130;142.766;2023-06-19T02:09:53;100039.56;;;15.25;62.73
63700;BME280;49845;47.130;142.766;2023-06-19T02:12:24;100046.91;;;15.17;59.23
63700;BME280;49845;47.130;142.766;2023-06-19T02:14:55;100054.69;;;14.98;59.19
63700;BME280;49845;47.130;142.766;2023-06-19T02:17:25;100045.38;;;14.87;62.56
63700;BME280;49845;47.130;142.766;2023-06-19T02:19:56;100049.91;;;14.84;60.72
63700;BME280;49845;47.130;142.766;2023-06-19T02:22:27;100051.78;;;14.57;60.74
63700;BME280;49845;47.130;142.766;2023-06-19T02:24:59;100042.13;;;14.57;61.55
63700;BME280;49845;47.130;142.766;2023-06-19T02:27:30;100054.53;;;14.52;61.43
63700;BME280;49845;47.130;142.766;2023-06-19T02:30:01;100045.44;;;14.62;62.08
63700;BME280;49845;47.130;142.766;2023-06-19T02:32:31;100056.03;;;14.84;63.19
63700;BME280;49845;47.130;142.766;2023-06-19T02:35:02;100007.94;;;14.57;62.50
63700;BME280;49845;47.130;142.766;2023-06-19T02:37:33;100048.31;;;14.80;62.78
63700;BME280;49845;47.130;142.766;2023-06-19T02:40:07;100006.81;;;14.39;62.93
63700;BME280;49845;47.130;142.766;2023-06-19T02:42:38;100045.34;;;14.65;64.62
63700;BME280;49845;47.130;142.766;2023-06-19T02:45:09;100051.97;;;14.76;65.58
63700;BME280;49845;47.130;142.766;2023-06-19T02:47:40;100053.81;;;14.74;61.44
63700;BME280;49845;47.130;142.766;2023-06-19T02:50:11;100052.31;;;14.66;62.40
63700;BME280;49845;47.130;142.766;2023-06-19T02:52:41;100049.22;;;14.55;63.61
63700;BME280;49845;47.130;142.766;2023-06-19T02:55:14;100042.16;;;14.81;63.40
63700;BME280;49845;47.130;142.766;2023-06-19T02:57:45;100036.97;;;15.01;62.07
63700;BME280;49845;47.130;142.766;2023-06-19T03:00:16;100041.78;;;14.90;61.10
63700;BME280;49845;47.130;142.766;2023-06-19T03:02:46;100046.78;;;14.98;61.79
63700;BME280;49845;47.130;142.766;2023-06-19T03:05:19;100036.97;;;15.01;62.36
63700;BME280;49845;47.130;142.766;2023-06-19T03:07:50;100037.78;;;14.80;59.43
63700;BME280;49845;47.130;142.766;2023-06-19T03:10:22;100038.31;;;14.66;62.55
63700;BME280;49845;47.130;142.766;2023-06-19T03:12:53;100043.50;;;14.67;63.35
63700;BME280;49845;47.130;142.766;2023-06-19T03:15:24;100040.13;;;14.64;64.83
63700;BME280;49845;47.130;142.766;2023-06-19T03:17:54;100039.16;;;14.90;64.32
63700;BME280;49845;47.130;142.766;2023-06-19T03:20:25;100035.63;;;14.91;64.80
63700;BME280;49845;47.130;142.766;2023-06-19T03:22:56;100032.88;;;14.71;63.80
63700;BME280;49845;47.130;142.766;2023-06-19T03:25:28;100036.53;;;14.66;65.06
63700;BME280;49845;47.130;142.766;2023-06-19T03:28:03;100021.09;;;14.57;64.52
63700;BME280;49845;47.130;142.766;2023-06-19T03:30:34;100022.00;;;14.56;63.89
63700;BME280;49845;47.130;142.766;2023-06-19T03:33:05;100032.28;;;14.62;64.60
63700;BME280;49845;47.130;142.766;2023-06-19T03:35:35;100032.53;;;14.56;64.86
63700;BME280;49845;47.130;142.766;2023-06-19T03:38:06;100025.44;;;14.82;64.72
63700;BME280;49845;47.130;142.766;2023-06-19T03:40:38;100024.16;;;15.16;62.18
63700;BME280;49845;47.130;142.766;2023-06-19T03:43:09;100012.69;;;15.17;63.87
63700;BME280;49845;47.130;142.766;2023-06-19T03:45:40;100014.44;;;14.94;62.93
63700;BME280;49845;47.130;142.766;2023-06-19T03:48:11;100003.38;;;14.86;62.93
63700;BME280;49845;47.130;142.766;2023-06-19T03:50:42;100014.47;;;14.71;64.89
63700;BME280;49845;47.130;142.766;2023-06-19T03:53:16;100009.13;;;14.72;64.30
63700;BME280;49845;47.130;142.766;2023-06-19T03:55:49;100008.06;;;14.78;64.41
63700;BME280;49845;47.130;142.766;2023-06-19T03:58:22;100006.81;;;14.64;62.86
63700;BME280;49845;47.130;142.766;2023-06-19T04:00:53;100011.19;;;14.40;64.49
63700;BME280;49845;47.130;142.766;2023-06-19T04:03:24;100007.66;;;14.40;63.80
63700;BME280;49845;47.130;142.766;2023-06-19T04:05:55;100005.72;;;14.45;62.91
63700;BME280;49845;47.130;142.766;2023-06-19T04:08:26;100006.59;;;14.71;63.43
63700;BME280;49845;47.130;142.766;2023-06-19T04:10:58;100000.28;;;14.98;61.66
63700;BME280;49845;47.130;142.766;2023-06-19T04:13:29;99996.09;;;15.15;63.20
63700;BME280;49845;47.130;142.766;2023-06-19T04:16:00;100005.59;;;15.19;61.27
63700;BME280;49845;47.130;142.766;2023-06-19T04:18:31;99992.94;;;15.50;61.91
63700;BME280;49845;47.130;142.766;2023-06-19T04:21:02;99984.38;;;15.45;59.95
63700;BME280;49845;47.130;142.766;2023-06-19T04:23:32;99999.19;;;15.26;60.41
63700;BME280;49845;47.130;142.766;2023-06-19T04:26:05;99989.88;;;15.39;60.16
63700;BME280;49845;47.130;142.766;2023-06-19T04:28:35;99991.72;;;15.15;60.41
63700;BME280;49845;47.130;142.766;2023-06-19T04:31:10;99986.44;;;14.93;61.06
63700;BME280;49845;47.130;142.766;2023-06-19T04:33:41;99980.69;;;15.05;62.38
63700;BME280;49845;47.130;142.766;2023-06-19T04:36:12;99982.91;;;15.38;61.98
63700;BME280;49845;47.130;142.766;2023-06-19T04:38:42;99981.91;;;15.41;60.86
63700;BME280;49845;47.130;142.766;2023-06-19T04:41:21;99980.44;;;15.12;61.75
63700;BME280;49845;47.130;142.766;2023-06-19T04:43:52;99972.13;;;15.00;62.77
63700;BME280;49845;47.130;142.766;2023-06-19T04:46:22;99984.72;;;14.92;62.33
63700;BME280;49845;47.130;142.766;2023-06-19T04:48:53;99980.59;;;15.30;60.37
63700;BME280;49845;47.130;142.766;2023-06-19T04:51:24;99981.16;;;15.37;61.16
63700;BME280;49845;47.130;142.766;2023-06-19T04:53:55;99949.47;;;14.96;60.81
63700;BME280;49845;47.130;142.766;2023-06-19T04:56:27;99976.13;;;15.32;61.43
63700;BME280;49845;47.130;142.766;2023-06-19T04:58:58;99975.88;;;15.59;60.98
63700;BME280;49845;47.130;142.766;2023-06-19T05:01:29;99987.16;;;15.63;61.19
63700;BME280;49845;47.130;142.766;2023-06-19T05:04:00;99987.41;;;15.57;61.08
63700;BME280;49845;47.130;142.766;2023-06-19T05:06:36;99987.28;;;15.60;60.79
63700;BME280;49845;47.130;142.766;2023-06-19T05:09:07;99981.63;;;15.69;61.38
63700;BME280;49845;47.130;142.766;2023-06-19T05:11:43;99972.81;;;15.70;60.44
63700;BME280;49845;47.130;142.766;2023-06-19T05:14:13;99978.38;;;15.84;59.86
63700;BME280;49845;47.130;142.766;2023-06-19T05:16:44;99981.00;;;15.84;60.31
63700;BME280;49845;47.130;142.766;2023-06-19T05:19:14;99991.69;;;15.81;60.26
63700;BME280;49845;47.130;142.766;2023-06-19T05:21:45;99983.34;;;15.70;61.66
63700;BME280;49845;47.130;142.766;2023-06-19T05:24:16;99986.41;;;16.02;60.08
63700;BME280;49845;47.130;142.766;2023-06-19T05:26:48;99885.72;;;15.32;58.35
63700;BME280;49845;47.130;142.766;2023-06-19T05:29:19;99985.44;;;15.62;59.26
63700;BME280;49845;47.130;142.766;2023-06-19T05:31:49;99984.25;;;15.69;61.95
63700;BME280;49845;47.130;142.766;2023-06-19T05:34:20;99964.13;;;15.68;60.03
63700;BME280;49845;47.130;142.766;2023-06-19T05:36:50;99979.31;;;16.04;59.45
63700;BME280;49845;47.130;142.766;2023-06-19T05:39:21;99988.66;;;16.11;59.38
63700;BME280;49845;47.130;142.766;2023-06-19T05:41:53;99982.44;;;16.12;60.36
63700;BME280;49845;47.130;142.766;2023-06-19T05:44:24;99988.56;;;16.33;60.13
63700;BME280;49845;47.130;142.766;2023-06-19T05:46:55;99976.44;;;16.29;57.64
63700;BME280;49845;47.130;142.766;2023-06-19T05:49:27;99982.72;;;16.06;59.69
63700;BME280;49845;47.130;142.766;2023-06-19T05:51:57;99976.00;;;16.19;58.80
63700;BME280;49845;47.130;142.766;2023-06-19T05:54:28;99988.88;;;16.46;58.63
63700;BME280;49845;47.130;142.766;2023-06-19T05:57:00;99979.59;;;16.37;57.68
63700;BME280;49845;47.130;142.766;2023-06-19T05:59:31;99983.84;;;16.39;57.58
63700;BME280;49845;47.130;142.766;2023-06-19T06:02:01;99988.78;;;16.47;56.99
63700;BME280;49845;47.130;142.766;2023-06-19T06:04:32;99979.66;;;16.35;58.45
63700;BME280;49845;47.130;142.766;2023-06-19T06:07:04;99980.13;;;16.25;60.03
63700;BME280;49845;47.130;142.766;2023-06-19T06:09:35;99938.06;;;16.03;56.37
63700;BME280;49845;47.130;142.766;2023-06-19T06:12:08;99982.31;;;15.94;57.53
63700;BME280;49845;47.130;142.766;2023-06-19T06:14:40;99920.28;;;15.45;58.41
63700;BME280;49845;47.130;142.766;2023-06-19T06:17:11;99927.16;;;15.49;58.76
63700;BME280;49845;47.130;142.766;2023-06-19T06:19:44;99967.44;;;16.14;59.42
63700;BME280;49845;47.130;142.766;2023-06-19T06:22:15;99958.47;;;16.18;58.11
63700;BME280;49845;47.130;142.766;2023-06-19T06:24:47;99962.44;;;16.08;58.27
63700;BME280;49845;47.130;142.766;2023-06-19T06:27:19;99954.13;;;15.96;56.54
63700;BME280;49845;47.130;142.766;2023-06-19T06:29:50;99958.41;;;15.99;55.76
63700;BME280;49845;47.130;142.766;2023-06-19T06:32:20;99949.59;;;16.00;57.83
63700;BME280;49845;47.130;142.766;2023-06-19T06:34:51;99951.06;;;16.26;56.52
63700;BME280;49845;47.130;142.766;2023-06-19T06:37:23;99947.66;;;16.62;56.85
63700;BME280;49845;47.130;142.766;2023-06-19T06:39:53;99945.00;;;16.83;56.73
63700;BME280;49845;47.130;142.766;2023-06-19T06:42:26;99930.28;;;16.96;55.96
63700;BME280;49845;47.130;142.766;2023-06-19T06:44:57;99927.88;;;17.28;56.67
63700;BME280;49845;47.130;142.766;2023-06-19T06:47:27;99928.19;;;17.39;54.96
63700;BME280;49845;47.130;142.766;2023-06-19T06:49:58;99937.81;;;17.22;55.23
63700;BME280;49845;47.130;142.766;2023-06-19T06:52:29;99938.56;;;17.24;55.52
63700;BME280;49845;47.130;142.766;2023-06-19T06:55:00;99935.03;;;17.43;56.17
63700;BME280;49845;47.130;142.766;2023-06-19T06:57:32;99947.28;;;17.27;54.17
63700;BME280;49845;47.130;142.766;2023-06-19T07:00:04;99946.41;;;16.90;55.22
63700;BME280;49845;47.130;142.766;2023-06-19T07:02:38;99931.56;;;16.68;55.25
63700;BME280;49845;47.130;142.766;2023-06-19T07:05:10;99926.59;;;17.00;57.72
63700;BME280;49845;47.130;142.766;2023-06-19T07:07:41;99947.13;;;17.30;54.63
63700;BME280;49845;47.130;142.766;2023-06-19T07:10:12;99932.81;;;17.16;54.84
63700;BME280;49845;47.130;142.766;2023-06-19T07:12:48;99933.78;;;16.77;55.60
63700;BME280;49845;47.130;142.766;2023-06-19T07:15:19;99941.25;;;16.49;56.14
63700;BME280;49845;47.130;142.766;2023-06-19T07:17:50;99938.69;;;16.28;57.44
63700;BME280;49845;47.130;142.766;2023-06-19T07:20:22;99928.09;;;16.09;57.80
63700;BME280;49845;47.130;142.766;2023-06-19T07:22:53;99904.41;;;15.89;57.80
63700;BME280;49845;47.130;142.766;2023-06-19T07:25:24;99945.03;;;16.04;59.34
63700;BME280;49845;47.130;142.766;2023-06-19T07:27:57;99949.16;;;15.90;58.43
63700;BME280;49845;47.130;142.766;2023-06-19T07:30:28;99941.31;;;15.67;59.44
63700;BME280;49845;47.130;142.766;2023-06-19T07:32:59;99951.66;;;15.51;60.72
63700;BME280;49845;47.130;142.766;2023-06-19T07:35:30;99953.16;;;15.36;60.89
63700;BME280;49845;47.130;142.766;2023-06-19T07:38:00;99947.16;;;15.32;61.87
63700;BME280;49845;47.130;142.766;2023-06-19T07:40:31;99939.69;;;15.22;62.65
63700;BME280;49845;47.130;142.766;2023-06-19T07:43:04;99940.16;;;15.09;62.47
63700;BME280;49845;47.130;142.766;2023-06-19T07:45:35;99965.63;;;15.09;62.86
63700;BME280;49845;47.130;142.766;2023-06-19T07:48:06;99957.19;;;15.01;64.29
63700;BME280;49845;47.130;142.766;2023-06-19T07:50:37;99893.50;;;14.47;65.96
63700;BME280;49845;47.130;142.766;2023-06-19T07:53:08;99964.13;;;14.80;65.95
63700;BME280;49845;47.130;142.766;2023-06-19T07:55:39;99951.88;;;14.57;66.87
63700;BME280;49845;47.130;142.766;2023-06-19T07:58:11;99960.34;;;14.40;66.98
63700;BME280;49845;47.130;142.766;2023-06-19T08:00:43;99962.53;;;14.29;67.25
63700;BME280;49845;47.130;142.766;2023-06-19T08:03:13;99968.34;;;14.13;67.54
63700;BME280;49845;47.130;142.766;2023-06-19T08:05:45;99963.84;;;13.92;68.00
63700;BME280;49845;47.130;142.766;2023-06-19T08:08:15;99969.72;;;13.73;68.27
63700;BME280;49845;47.130;142.766;2023-06-19T08:10:46;99973.75;;;13.57;68.96
63700;BME280;49845;47.130;142.766;2023-06-19T08:13:19;99972.88;;;13.31;69.08
63700;BME280;49845;47.130;142.766;2023-06-19T08:15:50;99965.63;;;13.10;69.70
63700;BME280;49845;47.130;142.766;2023-06-19T08:18:21;99992.06;;;13.04;71.33
63700;BME280;49845;47.130;142.766;2023-06-19T08:20:52;99990.75;;;12.89;72.79
63700;BME280;49845;47.130;142.766;2023-06-19T08:23:24;100002.31;;;12.83;73.32
63700;BME280;49845;47.130;142.766;2023-06-19T08:25:55;99996.41;;;12.75;73.92
63700;BME280;49845;47.130;142.766;2023-06-19T08:28:27;100001.88;;;12.67;74.66
63700;BME280;49845;47.130;142.766;2023-06-19T08:30:58;100006.63;;;12.55;74.35
63700;BME280;49845;47.130;142.766;2023-06-19T08:33:29;99996.66;;;12.36;75.46
63700;BME280;49845;47.130;142.766;2023-06-19T08:35:59;100002.53;;;12.44;75.57
63700;BME280;49845;47.130;142.766;2023-06-19T08:38:30;100015.97;;;12.32;75.69
63700;BME280;49845;47.130;142.766;2023-06-19T08:41:01;100019.84;;;12.19;76.27
63700;BME280;49845;47.130;142.766;2023-06-19T08:43:34;100028.69;;;12.15;76.76
63700;BME280;49845;47.130;142.766;2023-06-19T08:46:22;100009.69;;;12.06;77.16
63700;BME280;49845;47.130;142.766;2023-06-19T08:48:55;100022.88;;;12.03;77.01
63700;BME280;49845;47.130;142.766;2023-06-19T08:51:28;100029.31;;;11.90;77.39
63700;BME280;49845;47.130;142.766;2023-06-19T08:54:02;100028.59;;;11.83;77.79
63700;BME280;49845;47.130;142.766;2023-06-19T08:56:50;100021.00;;;11.73;78.38
63700;BME280;49845;47.130;142.766;2023-06-19T08:59:25;99945.50;;;11.21;79.03
63700;BME280;49845;47.130;142.766;2023-06-19T09:01:57;100018.53;;;11.66;79.83
63700;BME280;49845;47.130;142.766;2023-06-19T09:04:28;100003.88;;;11.59;79.56
63700;BME280;49845;47.130;142.766;2023-06-19T09:07:02;100021.16;;;11.66;79.89
63700;BME280;49845;47.130;142.766;2023-06-19T09:09:34;100029.97;;;11.62;80.33
63700;BME280;49845;47.130;142.766;2023-06-19T09:12:07;100005.97;;;11.45;80.43
63700;BME280;49845;47.130;142.766;2023-06-19T09:14:42;100014.72;;;11.44;81.03
63700;BME280;49845;47.130;142.766;2023-06-19T09:17:19;100032.06;;;11.48;81.28
63700;BME280;49845;47.130;142.766;2023-06-19T09:19:52;100027.19;;;11.33;81.50
63700;BME280;49845;47.130;142.766;2023-06-19T09:22:25;100046.41;;;11.32;82.69
63700;BME280;49845;47.130;142.766;2023-06-19T09:25:01;100051.63;;;11.32;82.83
63700;BME280;49845;47.130;142.766;2023-06-19T09:27:33;100043.16;;;11.20;82.88
63700;BME280;49845;47.130;142.766;2023-06-19T09:30:14;100053.63;;;11.20;83.12
63700;BME280;49845;47.130;142.766;2023-06-19T09:32:46;100051.75;;;11.26;83.94
63700;BME280;49845;47.130;142.766;2023-06-19T09:35:18;100054.31;;;11.29;84.25
63700;BME280;49845;47.130;142.766;2023-06-19T09:37:51;100041.28;;;11.26;84.34
63700;BME280;49845;47.130;142.766;2023-06-19T09:40:24;100055.19;;;11.28;84.21
63700;BME280;49845;47.130;142.766;2023-06-19T09:42:57;100052.81;;;11.18;83.59
63700;BME280;49845;47.130;142.766;2023-06-19T09:45:31;100060.78;;;11.12;83.88
63700;BME280;49845;47.130;142.766;2023-06-19T09:48:04;100061.72;;;11.10;84.05
63700;BME280;49845;47.130;142.766;2023-06-19T09:50:41;100065.88;;;11.18;84.15
63700;BME280;49845;47.130;142.766;2023-06-19T09:53:14;100051.97;;;11.16;83.78
63700;BME280;49845;47.130;142.766;2023-06-19T09:55:49;100060.50;;;11.25;83.81
63700;BME280;49845;47.130;142.766;2023-06-19T09:58:21;100082.94;;;11.35;83.61
63700;BME280;49845;47.130;142.766;2023-06-19T10:00:55;100047.75;;;11.48;83.91
63700;BME280;49845;47.130;142.766;2023-06-19T10:03:40;100051.75;;;11.64;83.92
63700;BME280;49845;47.130;142.766;2023-06-19T10:06:15;100047.25;;;11.70;83.14
63700;BME280;49845;47.130;142.766;2023-06-19T10:08:51;100050.63;;;11.75;82.94
63700;BME280;49845;47.130;142.766;2023-06-19T10:11:25;100044.63;;;11.70;81.57
63700;BME280;49845;47.130;142.766;2023-06-19T10:14:06;100029.84;;;11.69;81.94
63700;BME280;49845;47.130;142.766;2023-06-19T10:16:40;100005.38;;;11.70;83.17
63700;BME280;49845;47.130;142.766;2023-06-19T10:19:14;100036.19;;;11.94;84.01
63700;BME280;49845;47.130;142.766;2023-06-19T10:21:48;99994.75;;;11.76;84.22
63700;BME280;49845;47.130;142.766;2023-06-19T10:24:25;100022.38;;;11.89;84.05
63700;BME280;49845;47.130;142.766;2023-06-19T10:26:58;100000.13;;;11.70;84.17
63700;BME280;49845;47.130;142.766;2023-06-19T10:29:38;99986.50;;;11.57;84.36
63700;BME280;49845;47.130;142.766;2023-06-19T10:32:25;100030.53;;;11.75;84.50
63700;BME280;49845;47.130;142.766;2023-06-19T10:34:57;100028.19;;;11.64;84.60
63700;BME280;49845;47.130;142.766;2023-06-19T10:37:34;100017.06;;;11.56;84.91
63700;BME280;49845;47.130;142.766;2023-06-19T10:40:07;100009.41;;;11.47;85.28
63700;BME280;49845;47.130;142.766;2023-06-19T10:42:42;100033.88;;;11.46;86.02
63700;BME280;49845;47.130;142.766;2023-06-19T10:45:15;100032.38;;;11.36;86.46
63700;BME280;49845;47.130;142.766;2023-06-19T10:47:52;100034.16;;;11.34;86.80
63700;BME280;49845;47.130;142.766;2023-06-19T10:50:25;100042.97;;;11.30;87.46
63700;BME280;49845;47.130;142.766;2023-06-19T10:52:59;100039.47;;;11.31;88.55
63700;BME280;49845;47.130;142.766;2023-06-19T10:55:31;100049.09;;;11.29;89.14
63700;BME280;49845;47.130;142.766;2023-06-19T10:58:03;100044.75;;;11.28;89.30
63700;BME280;49845;47.130;142.766;2023-06-19T11:00:36;100046.41;;;11.32;89.96
63700;BME280;49845;47.130;142.766;2023-06-19T11:03:10;100041.09;;;11.35;90.25
63700;BME280;49845;47.130;142.766;2023-06-19T11:05:44;100033.34;;;11.30;90.14
63700;BME280;49845;47.130;142.766;2023-06-19T11:08:19;100049.78;;;11.35;90.43
63700;BME280;49845;47.130;142.766;2023-06-19T11:10:51;100033.56;;;11.21;90.04
63700;BME280;49845;47.130;142.766;2023-06-19T11:13:22;100055.09;;;11.32;89.90
63700;BME280;49845;47.130;142.766;2023-06-19T11:15:58;100053.34;;;11.33;90.66
63700;BME280;49845;47.130;142.766;2023-06-19T11:18:31;100055.09;;;11.34;90.94
63700;BME280;49845;47.130;142.766;2023-06-19T11:21:03;100056.88;;;11.32;91.31
63700;BME280;49845;47.130;142.766;2023-06-19T11:23:36;100056.09;;;11.27;91.63
63700;BME280;49845;47.130;142.766;2023-06-19T11:26:07;100055.28;;;11.25;92.19
63700;BME280;49845;47.130;142.766;2023-06-19T11:28:40;100051.97;;;11.16;92.43
63700;BME280;49845;47.130;142.766;2023-06-19T11:31:12;100053.75;;;11.14;92.92
63700;BME280;49845;47.130;142.766;2023-06-19T11:33:56;100068.63;;;11.12;93.36
63700;BME280;49845;47.130;142.766;2023-06-19T11:36:28;100052.31;;;11.01;93.38
63700;BME280;49845;47.130;142.766;2023-06-19T11:39:00;100050.50;;;11.05;93.50
63700;BME280;49845;47.130;142.766;2023-06-19T11:41:34;100031.44;;;10.98;93.88
63700;BME280;49845;47.130;142.766;2023-06-19T11:44:07;100055.69;;;11.06;94.39
63700;BME280;49845;47.130;142.766;2023-06-19T11:46:40;100035.63;;;11.07;94.37
63700;BME280;49845;47.130;142.766;2023-06-19T11:49:16;99974.63;;;10.67;94.32
63700;BME280;49845;47.130;142.766;2023-06-19T11:51:48;100034.81;;;11.03;94.71
63700;BME280;49845;47.130;142.766;2023-06-19T11:54:20;100046.25;;;10.99;95.06
63700;BME280;49845;47.130;142.766;2023-06-19T11:56:51;100049.81;;;10.95;95.23
63700;BME280;49845;47.130;142.766;2023-06-19T11:59:23;100050.72;;;10.94;95.22
63700;BME280;49845;47.130;142.766;2023-06-19T12:01:54;100050.66;;;10.97;95.65
63700;BME280;49845;47.130;142.766;2023-06-19T12:04:31;100061.25;;;10.91;96.00
63700;BME280;49845;47.130;142.766;2023-06-19T12:07:04;100056.78;;;10.96;96.12
63700;BME280;49845;47.130;142.766;2023-06-19T12:09:36;100047.09;;;11.01;96.19
63700;BME280;49845;47.130;142.766;2023-06-19T12:12:09;100060.13;;;11.02;96.28
63700;BME280;49845;47.130;142.766;2023-06-19T12:14:41;100065.34;;;11.02;96.15
63700;BME280;49845;47.130;142.766;2023-06-19T12:17:13;100054.94;;;11.01;96.18
63700;BME280;49845;47.130;142.766;2023-06-19T12:19:46;100063.66;;;11.00;96.35
63700;BME280;49845;47.130;142.766;2023-06-19T12:22:19;100053.28;;;10.97;96.45
63700;BME280;49845;47.130;142.766;2023-06-19T12:24:51;100061.25;;;10.91;96.80
63700;BME280;49845;47.130;142.766;2023-06-19T12:27:23;100047.47;;;10.83;97.39
63700;BME280;49845;47.130;142.766;2023-06-19T12:29:55;100055.13;;;10.92;97.91
63700;BME280;49845;47.130;142.766;2023-06-19T12:32:26;100043.97;;;10.84;98.04
63700;BME280;49845;47.130;142.766;2023-06-19T12:34:59;100055.03;;;10.96;98.28
63700;BME280;49845;47.130;142.766;2023-06-19T12:37:34;100052.38;;;10.98;98.50
63700;BME280;49845;47.130;142.766;2023-06-19T12:40:06;100056.78;;;10.96;98.34
63700;BME280;49845;47.130;142.766;2023-06-19T12:42:40;100052.59;;;10.89;98.55
63700;BME280;49845;47.130;142.766;2023-06-19T12:45:12;100040.59;;;10.78;98.85
63700;BME280;49845;47.130;142.766;2023-06-19T12:47:44;100063.16;;;10.83;99.18
63700;BME280;49845;47.130;142.766;2023-06-19T12:50:18;100052.59;;;10.89;99.73
63700;BME280;49845;47.130;142.766;2023-06-19T12:52:50;100037.00;;;10.83;99.89
63700;BME280;49845;47.130;142.766;2023-06-19T12:55:22;100059.44;;;10.93;100.00
63700;BME280;49845;47.130;142.766;2023-06-19T12:57:54;100063.81;;;10.92;100.00